Time;durP1;ratioP1;P1;durP2;ratioP2;P2;SDS_P1;SDS_P2;PMS_P1;PMS_P2;Temp;Humidity;BMP_temperature;BMP_pressure;BME280_temperature;BME280_humidity;BME280_pressure;Samples;Min_cycle;Max_cycle;Signal;HPM_P1;HPM_P2
2024/02/28 00:03:23;;;;;;;5.43;4.00;;;;;;;17.30;54.15;101802.00;10451124;28;20299;-60
2024/02/28 00:08:24;;;;;;;4.07;2.83;;;;;;;17.26;53.32;101804.38;10451246;28;20268;-60
2024/02/28 00:13:24;;;;;;;5.70;3.77;;;;;;;17.28;53.41;101806.78;10450594;28;20388;-59
2024/02/28 00:18:24;;;;;;;4.15;3.28;;;;;;;17.28;53.29;101809.47;10451082;28;20287;-60
2024/02/28 00:23:25;;;;;;;4.15;3.25;;;;;;;17.28;53.44;101806.78;10450340;28;20076;-59
2024/02/28 00:28:25;;;;;;;5.20;3.45;;;;;;;17.30;52.85;101804.69;10450652;28;20025;-60
2024/02/28 00:33:25;;;;;;;5.30;3.30;;;;;;;17.27;53.28;101795.25;10450301;28;20040;-60
2024/02/28 00:38:27;;;;;;;5.03;2.93;;;;;;;17.23;52.88;101803.03;10444280;28;20378;-60
2024/02/28 00:43:27;;;;;;;5.30;3.33;;;;;;;17.26;53.70;101801.69;10447524;28;20389;-60
2024/02/28 00:48:27;;;;;;;5.30;3.58;;;;;;;17.27;53.50;101802.50;10437763;28;20095;-60
2024/02/28 00:53:28;;;;;;;5.73;3.63;;;;;;;17.25;52.63;101802.75;10450237;28;20357;-60
2024/02/28 00:58:29;;;;;;;6.00;3.60;;;;;;;17.26;52.94;101801.69;10448414;28;20294;-60
2024/02/28 01:03:30;;;;;;;5.22;4.10;;;;;;;17.27;51.98;101789.91;10457790;28;20279;-60
2024/02/28 01:08:30;;;;;;;4.43;3.80;;;;;;;17.26;52.47;101785.59;10456708;28;20025;-60
2024/02/28 01:13:30;;;;;;;4.15;3.17;;;;;;;17.26;53.20;101780.25;10458330;28;20295;-60
2024/02/28 01:18:32;;;;;;;4.60;3.85;;;;;;;17.27;52.93;101784.53;10457618;28;20025;-59
2024/02/28 01:23:32;;;;;;;8.85;4.10;;;;;;;17.26;52.49;101777.56;10457961;28;20028;-60
2024/02/28 01:28:33;;;;;;;4.90;3.13;;;;;;;17.25;53.01;101773.28;10457597;28;20025;-60
2024/02/28 01:33:33;;;;;;;5.47;3.90;;;;;;;17.25;52.92;101784.00;10457388;28;20643;-60
2024/02/28 01:38:33;;;;;;;5.27;4.60;;;;;;;17.25;51.88;101797.41;10456817;28;20029;-60
2024/02/28 01:43:34;;;;;;;5.25;3.50;;;;;;;17.28;52.63;101799.56;10456905;28;20283;-60
2024/02/28 01:48:34;;;;;;;5.20;3.50;;;;;;;17.28;52.42;101801.44;10455269;28;20013;-60
2024/02/28 01:53:34;;;;;;;5.45;4.30;;;;;;;17.29;51.90;101797.72;10456755;28;20278;-60
2024/02/28 01:58:35;;;;;;;5.27;4.47;;;;;;;17.28;52.24;101796.88;10454951;28;20480;-59
2024/02/28 02:03:35;;;;;;;5.47;3.60;;;;;;;17.33;53.05;101788.06;10455150;28;20282;-61
2024/02/28 02:08:36;;;;;;;4.80;3.78;;;;;;;17.33;51.70;101796.13;10454343;28;20017;-60
2024/02/28 02:13:50;;;;;;;5.80;3.80;;;;;;;17.34;52.79;101793.16;10453870;28;20052;-60
2024/02/28 02:18:50;;;;;;;4.40;3.40;;;;;;;17.37;51.68;101791.84;10453528;28;20035;-60
2024/02/28 02:23:51;;;;;;;5.27;3.53;;;;;;;17.37;52.72;101787.28;10452388;28;20033;-60
2024/02/28 02:28:51;;;;;;;5.20;3.60;;;;;;;17.38;51.52;101796.94;10451692;28;20267;-59
2024/02/28 02:33:51;;;;;;;4.38;3.78;;;;;;;17.36;51.28;101792.91;10454086;28;20267;-60
2024/02/28 02:38:52;;;;;;;5.20;3.63;;;;;;;17.35;50.89;101784.06;10453328;28;20040;-59
2024/02/28 02:43:52;;;;;;;4.13;3.17;;;;;;;17.35;51.08;101793.97;10454933;28;20337;-60
2024/02/28 02:48:52;;;;;;;5.00;3.15;;;;;;;17.36;50.96;101803.63;10454137;28;20305;-60
2024/02/28 02:53:53;;;;;;;4.07;3.67;;;;;;;17.35;50.67;101802.00;10454296;28;20029;-60
2024/02/28 02:58:54;;;;;;;6.25;4.05;;;;;;;17.39;52.28;101790.50;10453765;28;20029;-60
2024/02/28 03:03:54;;;;;;;5.28;3.72;;;;;;;17.37;51.79;101784.59;10453988;28;20040;-60
2024/02/28 03:08:54;;;;;;;5.75;3.72;;;;;;;17.40;51.35;101794.78;10453380;28;20477;-60
2024/02/28 03:13:55;;;;;;;3.83;2.93;;;;;;;17.40;51.40;101781.38;10453345;28;20417;-59
2024/02/28 03:18:55;;;;;;;4.43;3.70;;;;;;;17.38;51.49;101774.69;10452930;28;20390;-61
2024/02/28 03:23:56;;;;;;;4.85;3.63;;;;;;;17.37;51.81;101771.19;10451093;28;20630;-60
2024/02/28 03:28:56;;;;;;;4.73;3.17;;;;;;;17.32;50.44;101776.53;10451271;28;20028;-60
2024/02/28 03:33:56;;;;;;;4.00;2.90;;;;;;;17.34;50.68;101781.63;10452530;28;20302;-60
2024/02/28 03:38:57;;;;;;;4.43;3.10;;;;;;;17.33;51.83;101783.50;10451898;28;20290;-60
2024/02/28 03:43:57;;;;;;;4.32;3.30;;;;;;;17.32;50.64;101784.59;10452208;28;20364;-60
2024/02/28 03:48:57;;;;;;;3.67;2.67;;;;;;;17.30;50.77;101780.56;10451643;28;20440;-60
2024/02/28 03:53:58;;;;;;;3.77;2.90;;;;;;;17.27;51.87;101786.41;10451722;28;20275;-60
2024/02/28 03:58:58;;;;;;;4.20;2.72;;;;;;;17.27;52.07;101789.09;10451220;28;20318;-60
2024/02/28 04:03:58;;;;;;;3.50;2.70;;;;;;;17.31;51.79;101798.25;10451600;28;20021;-60
2024/02/28 04:08:59;;;;;;;3.63;2.53;;;;;;;17.35;51.31;101800.13;10451209;28;20831;-59
2024/02/28 04:13:59;;;;;;;4.03;2.88;;;;;;;17.37;50.36;101799.88;10451186;28;20063;-60
2024/02/28 04:18:59;;;;;;;4.00;3.13;;;;;;;17.42;51.06;101794.56;10450522;28;20028;-61
2024/02/28 04:24:00;;;;;;;3.00;2.10;;;;;;;17.40;50.97;101796.66;10450708;28;20280;-59
2024/02/28 04:29:04;;;;;;;3.33;2.40;;;;;;;17.44;50.59;101805.81;10450096;28;20333;-61
2024/02/28 04:34:05;;;;;;;4.90;3.63;;;;;;;17.43;51.05;101801.53;10448861;28;20286;-60
2024/02/28 04:39:07;;;;;;;4.00;2.80;;;;;;;17.43;51.08;101801.53;10450093;28;20024;-59
2024/02/28 04:44:07;;;;;;;4.13;2.63;;;;;;;17.47;51.90;101803.41;10449021;28;20281;-60
2024/02/28 04:49:09;;;;;;;3.97;2.90;;;;;;;17.42;51.54;101799.91;10449071;28;20461;-60
2024/02/28 04:54:09;;;;;;;3.70;2.63;;;;;;;17.43;51.82;101813.06;10448101;28;20267;-60
2024/02/28 04:59:11;;;;;;;3.83;2.87;;;;;;;17.45;51.99;101812.78;10448763;28;20637;-61
2024/02/28 05:04:11;;;;;;;3.58;2.63;;;;;;;17.40;51.25;101826.16;10448057;28;20291;-60
2024/02/28 05:09:12;;;;;;;4.10;2.88;;;;;;;17.40;51.43;101826.97;10449558;28;20036;-60
2024/02/28 05:14:12;;;;;;;3.38;2.47;;;;;;;17.38;51.31;101831.78;10449878;28;20053;-60
2024/02/28 05:19:13;;;;;;;3.60;2.50;;;;;;;17.39;51.80;101830.72;10449199;28;20081;-61
2024/02/28 05:24:13;;;;;;;3.67;2.63;;;;;;;17.33;51.60;101831.75;10449566;28;20028;-61
2024/02/28 05:29:14;;;;;;;4.82;3.25;;;;;;;17.28;52.08;101823.69;10447630;28;20028;-61
2024/02/28 05:34:16;;;;;;;3.93;2.50;;;;;;;17.31;52.16;101830.41;10447957;28;20419;-60
2024/02/28 05:39:16;;;;;;;3.30;2.58;;;;;;;17.29;52.71;101841.41;10449147;28;20299;-61
2024/02/28 05:44:16;;;;;;;3.17;2.37;;;;;;;17.32;51.48;101829.34;10449217;28;20017;-60
2024/02/28 05:49:17;;;;;;;3.40;2.57;;;;;;;17.29;52.27;101836.03;10455449;28;20785;-60
2024/02/28 05:54:18;;;;;;;3.67;2.63;;;;;;;17.32;51.58;101842.75;10455025;28;20271;-61
2024/02/28 05:59:19;;;;;;;3.20;2.35;;;;;;;17.32;51.22;101840.06;10451832;28;20283;-60
2024/02/28 06:04:19;;;;;;;3.43;2.47;;;;;;;17.34;52.50;101833.38;10449685;28;20377;-61
2024/02/28 06:09:19;;;;;;;3.13;2.50;;;;;;;17.38;51.11;101842.50;10454986;28;20279;-61
2024/02/28 06:14:20;;;;;;;3.43;2.73;;;;;;;17.38;50.97;101839.03;10455451;28;20813;-60
2024/02/28 06:19:20;;;;;;;2.97;2.47;;;;;;;17.41;51.56;101846.56;10451766;28;20299;-60
2024/02/28 06:24:20;;;;;;;3.73;2.87;;;;;;;17.39;51.47;101841.44;10454453;28;20726;-60
2024/02/28 06:29:22;;;;;;;6.43;3.13;;;;;;;17.44;51.46;101856.75;10455853;28;20314;-63
2024/02/28 06:34:22;;;;;;;5.88;2.67;;;;;;;17.41;52.23;101860.78;10455163;28;20313;-63
2024/02/28 06:39:23;;;;;;;4.10;2.65;;;;;;;17.42;53.31;101870.44;10454493;28;20055;-64
2024/02/28 06:44:23;;;;;;;15.67;5.63;;;;;;;17.47;53.79;101877.69;10454947;28;20025;-62
2024/02/28 06:49:24;;;;;;;28.10;4.87;;;;;;;17.30;54.14;101877.06;10453640;28;20954;-60
2024/02/28 06:54:24;;;;;;;12.88;3.22;;;;;;;17.31;53.98;101886.72;10454029;28;20272;-61
2024/02/28 06:59:24;;;;;;;9.15;3.13;;;;;;;17.30;53.54;101888.59;10450326;28;20029;-62
2024/02/28 07:04:25;;;;;;;13.25;4.18;;;;;;;17.28;53.65;101898.72;10452573;28;20029;-59
2024/02/28 07:09:29;;;;;;;6.43;3.13;;;;;;;17.22;52.73;101900.59;10453472;28;20036;-61
2024/02/28 07:14:30;;;;;;;7.57;2.95;;;;;;;17.19;53.46;101906.47;10453628;28;20053;-60
2024/02/28 07:19:30;;;;;;;7.57;3.37;;;;;;;17.21;53.44;101906.19;10451766;28;20032;-60
2024/02/28 07:24:30;;;;;;;7.78;3.28;;;;;;;17.22;51.86;101918.53;10453270;28;20041;-60
2024/02/28 07:29:31;;;;;;;6.17;3.00;;;;;;;17.17;52.69;101918.50;10452537;28;20043;-61
2024/02/28 07:34:31;;;;;;;5.85;2.78;;;;;;;17.20;52.50;101920.66;10453053;28;20279;-60
2024/02/28 07:39:31;;;;;;;8.48;3.00;;;;;;;17.23;52.44;101931.69;10450947;28;20029;-61
2024/02/28 07:44:31;;;;;;;6.50;3.47;;;;;;;17.20;51.58;101936.75;10452388;28;20017;-61
2024/02/28 07:49:33;;;;;;;6.30;3.55;;;;;;;17.19;51.72;101943.19;10452053;28;20286;-61
2024/02/28 07:54:33;;;;;;;6.53;2.97;;;;;;;17.17;52.83;101953.34;10450526;28;20029;-61
2024/02/28 07:59:38;;;;;;;5.55;3.55;;;;;;;17.10;52.24;101958.09;10451450;28;20029;-61
2024/02/28 08:04:39;;;;;;;7.20;3.95;;;;;;;17.16;52.35;101949.03;10451906;28;20025;-60
2024/02/28 08:09:39;;;;;;;6.57;3.63;;;;;;;17.09;52.53;101962.66;10450256;28;20079;-61
2024/02/28 08:14:39;;;;;;;6.35;3.50;;;;;;;17.14;52.06;101969.94;10451547;28;20648;-61
2024/02/28 08:19:41;;;;;;;4.63;3.00;;;;;;;17.10;52.08;101976.88;10450492;28;20040;-61
2024/02/28 08:24:42;;;;;;;7.88;3.70;;;;;;;17.10;51.67;101977.69;10450874;28;20278;-60
2024/02/28 08:29:43;;;;;;;5.32;2.85;;;;;;;17.09;52.09;101984.09;10438013;28;20032;-61
2024/02/28 08:34:45;;;;;;;7.22;3.35;;;;;;;17.08;52.46;101973.63;10450775;28;20108;-60
2024/02/28 08:39:46;;;;;;;6.45;4.00;;;;;;;17.04;52.27;101977.88;10450168;28;20469;-60
2024/02/28 08:44:47;;;;;;;8.65;3.30;;;;;;;17.05;53.21;101990.19;10446882;28;20057;-61
2024/02/28 08:49:48;;;;;;;6.45;4.32;;;;;;;17.20;51.25;101987.69;10444885;28;20115;-60
2024/02/28 08:54:48;;;;;;;4.60;3.72;;;;;;;17.17;51.68;101983.66;10449658;28;20029;-59
2024/02/28 08:59:49;;;;;;;12.27;4.07;;;;;;;17.24;52.15;101972.69;10450101;28;20652;-58
2024/02/28 09:04:52;;;;;;;16.42;4.00;;;;;;;17.25;52.51;101987.72;10448510;28;20042;-59
2024/02/28 09:09:52;;;;;;;18.75;4.63;;;;;;;17.21;51.69;101981.25;10449863;28;20476;-59
2024/02/28 09:14:56;;;;;;;14.73;4.30;;;;;;;17.32;50.87;101985.63;10447659;28;20029;-58
2024/02/28 09:19:57;;;;;;;7.70;4.15;;;;;;;17.41;51.94;101989.47;10449182;28;20303;-59
2024/02/28 09:24:57;;;;;;;7.50;4.70;;;;;;;17.48;52.67;101984.69;10456882;28;20108;-58
2024/02/28 09:29:57;;;;;;;9.93;4.97;;;;;;;17.56;52.85;101983.41;10457186;28;20021;-58
2024/02/28 09:34:58;;;;;;;10.37;4.70;;;;;;;17.57;53.41;101976.16;10456330;28;20530;-59
2024/02/28 09:39:58;;;;;;;8.03;5.47;;;;;;;17.57;54.11;101982.34;10456931;28;20344;-60
2024/02/28 09:45:00;;;;;;;8.07;6.80;;;;;;;17.61;54.87;101977.25;10456517;28;20654;-61
2024/02/28 09:50:02;;;;;;;6.72;5.95;;;;;;;17.68;53.30;101986.72;10455486;28;20028;-59
2024/02/28 09:55:03;;;;;;;7.68;5.80;;;;;;;17.63;53.77;101988.53;10455228;28;20052;-59
2024/02/28 10:00:04;;;;;;;11.43;6.68;;;;;;;17.66;54.21;101991.53;10456117;28;20124;-59
2024/02/28 10:05:05;;;;;;;11.18;7.57;;;;;;;17.61;53.80;101994.16;10454508;28;20025;-60
2024/02/28 10:10:07;;;;;;;10.48;6.65;;;;;;;17.63;54.52;101994.69;10437860;28;20060;-59
2024/02/28 10:15:09;;;;;;;9.63;7.82;;;;;;;17.59;55.10;101998.16;10455649;28;20029;-61
2024/02/28 10:20:10;;;;;;;9.82;7.03;;;;;;;17.67;54.58;101995.03;10455629;28;20032;-58
2024/02/28 10:25:10;;;;;;;12.48;7.57;;;;;;;17.45;54.05;102001.28;10441149;28;20050;-57
2024/02/28 10:30:11;;;;;;;14.30;6.73;;;;;;;17.36;55.53;101997.47;10454174;28;20388;-58
2024/02/28 10:35:12;;;;;;;10.70;8.02;;;;;;;17.33;55.44;101997.16;10441859;28;20275;-59
2024/02/28 10:40:13;;;;;;;10.57;7.00;;;;;;;17.19;54.90;101997.59;10442508;28;20108;-59
2024/02/28 10:45:17;;;;;;;18.63;8.23;;;;;;;17.15;54.40;101990.28;10453664;28;20423;-59
2024/02/28 10:50:18;;;;;;;13.27;7.75;;;;;;;17.11;53.82;101991.88;10452762;28;20025;-58
2024/02/28 10:55:23;;;;;;;15.20;7.53;;;;;;;17.13;54.62;101993.22;10453300;28;20535;-59
2024/02/28 11:00:23;;;;;;;10.07;7.53;;;;;;;17.14;53.49;101984.13;10451992;28;20449;-59
2024/02/28 11:05:24;;;;;;;11.57;7.35;;;;;;;17.16;53.27;101979.31;10451220;28;20048;-59
2024/02/28 11:10:32;;;;;;;14.63;7.37;;;;;;;17.20;53.66;101964.38;10452563;28;20136;-58
2024/02/28 11:15:32;;;;;;;8.68;6.80;;;;;;;17.19;54.57;101965.44;10450781;28;20424;-58
2024/02/28 11:20:33;;;;;;;11.82;6.68;;;;;;;17.20;52.95;101972.41;10452196;28;20438;-58
2024/02/28 11:25:33;;;;;;;13.00;8.68;;;;;;;17.25;52.74;101974.31;10451716;28;20400;-59
2024/02/28 11:30:34;;;;;;;9.63;6.43;;;;;;;17.25;53.94;101958.22;10451794;28;20043;-59
2024/02/28 11:35:35;;;;;;;7.40;6.60;;;;;;;17.21;53.21;101973.22;10451393;28;20985;-59
2024/02/28 11:40:35;;;;;;;8.45;6.00;;;;;;;17.15;53.28;101969.66;10451652;28;20096;-58
2024/02/28 11:45:43;;;;;;;10.53;6.63;;;;;;;17.19;52.81;101954.72;10450307;28;20032;-59
2024/02/28 11:50:43;;;;;;;10.35;5.68;;;;;;;17.18;53.58;101947.75;10450984;28;20279;-59
2024/02/28 11:55:47;;;;;;;8.83;5.80;;;;;;;17.16;53.09;101949.84;10450706;28;20025;-59
2024/02/28 12:00:48;;;;;;;7.50;5.95;;;;;;;17.14;53.42;101937.75;10449444;28;20295;-59
2024/02/28 12:05:49;;;;;;;7.53;5.72;;;;;;;17.13;53.24;101944.19;10448076;28;20021;-59
2024/02/28 12:10:50;;;;;;;9.27;6.13;;;;;;;17.06;53.41;101936.38;10447047;28;20044;-60
2024/02/28 12:15:50;;;;;;;12.98;6.28;;;;;;;17.18;53.28;101930.84;10450054;28;20029;-61
2024/02/28 12:20:50;;;;;;;8.77;6.13;;;;;;;17.28;53.80;101925.53;10450668;28;20032;-60
2024/02/28 12:25:51;;;;;;;7.73;6.10;;;;;;;17.26;53.61;101919.63;10450843;28;20937;-64
2024/02/28 12:30:53;;;;;;;11.70;5.25;;;;;;;17.28;54.43;101908.66;10450870;28;20282;-63
2024/02/28 12:35:53;;;;;;;9.20;5.65;;;;;;;17.22;53.72;101913.19;10450512;28;20040;-63
2024/02/28 12:40:54;;;;;;;10.27;5.60;;;;;;;17.20;54.84;101907.28;10449738;28;20025;-63
2024/02/28 12:45:54;;;;;;;8.43;5.22;;;;;;;17.13;53.93;101901.31;10448071;28;20311;-62
2024/02/28 12:50:54;;;;;;;8.10;5.63;;;;;;;17.07;55.02;101900.47;10448730;28;20108;-63
2024/02/28 12:55:55;;;;;;;11.17;7.00;;;;;;;17.07;54.48;101905.03;10437827;28;20302;-62
2024/02/28 13:00:55;;;;;;;9.07;4.93;;;;;;;17.06;54.40;101901.53;10448831;28;20290;-62
2024/02/28 13:05:55;;;;;;;8.23;5.57;;;;;;;17.04;54.37;101894.81;10448405;28;20293;-62
2024/02/28 13:10:57;;;;;;;11.37;7.07;;;;;;;17.07;53.68;101894.31;10448311;28;20896;-62
2024/02/28 13:15:57;;;;;;;9.88;5.65;;;;;;;17.13;54.12;101899.44;10447459;28;20806;-62
2024/02/28 13:20:58;;;;;;;11.02;5.30;;;;;;;17.13;54.43;101899.44;10448431;28;20044;-61
2024/02/28 13:25:58;;;;;;;7.00;4.80;;;;;;;17.14;53.56;101908.28;10448112;28;20025;-62
2024/02/28 13:30:59;;;;;;;7.30;5.00;;;;;;;17.13;53.63;101901.31;10448379;28;20757;-62
2024/02/28 13:35:59;;;;;;;5.68;5.00;;;;;;;17.11;54.44;101893.53;10446596;28;20282;-62
2024/02/28 13:41:00;;;;;;;7.75;4.93;;;;;;;17.12;52.84;101881.75;10448348;28;20621;-62
2024/02/28 13:46:00;;;;;;;10.33;5.40;;;;;;;17.07;53.28;101879.03;10446492;28;20025;-62
2024/02/28 13:51:01;;;;;;;7.73;4.60;;;;;;;17.08;53.54;101864.56;10446589;28;20295;-63
2024/02/28 13:56:02;;;;;;;10.98;5.72;;;;;;;17.09;55.38;101868.88;10448640;28;20362;-61
2024/02/28 14:01:02;;;;;;;9.63;5.15;;;;;;;17.14;55.52;101860.84;10448831;28;20036;-61
2024/02/28 14:06:03;;;;;;;15.98;6.65;;;;;;;17.14;53.85;101852.00;10447787;28;20056;-61
2024/02/28 14:11:06;;;;;;;16.52;6.55;;;;;;;17.26;55.31;101836.53;10455610;28;20094;-62
2024/02/28 14:16:07;;;;;;;17.73;6.50;;;;;;;17.22;54.65;101832.78;10454450;28;20025;-59
2024/02/28 14:21:07;;;;;;;34.72;10.15;;;;;;;17.20;56.08;101816.94;10455513;28;20033;-61
2024/02/28 14:26:08;;;;;;;22.17;7.15;;;;;;;17.24;54.94;101814.56;10455318;28;20488;-59
2024/02/28 14:31:08;;;;;;;21.23;7.70;;;;;;;17.25;54.61;101816.16;10450836;28;20076;-61
2024/02/28 14:36:09;;;;;;;28.80;10.70;;;;;;;17.22;55.92;101822.06;10454448;28;20029;-62
2024/02/28 14:41:10;;;;;;;35.97;9.50;;;;;;;17.25;55.24;101832.25;10455137;28;20029;-61
2024/02/28 14:46:11;;;;;;;22.23;9.80;;;;;;;17.21;54.80;101823.13;10453175;28;20272;-61
2024/02/28 14:51:11;;;;;;;20.80;9.48;;;;;;;17.22;55.23;101808.66;10453407;28;20028;-60
2024/02/28 14:56:11;;;;;;;22.27;9.23;;;;;;;17.19;55.64;101814.53;10453140;28;20021;-61
2024/02/28 15:01:12;;;;;;;26.30;9.53;;;;;;;17.19;56.06;101820.69;10453560;28;20287;-59
2024/02/28 15:06:12;;;;;;;23.10;8.38;;;;;;;17.17;54.61;101806.75;10451536;28;20267;-59
2024/02/28 15:11:13;;;;;;;23.83;11.27;;;;;;;17.13;55.24;101816.34;10452103;28;20048;-59
2024/02/28 15:16:13;;;;;;;20.48;8.23;;;;;;;17.15;55.67;101808.06;10451995;28;20758;-60
2024/02/28 15:21:13;;;;;;;28.50;10.40;;;;;;;17.13;54.91;101800.28;10451197;28;20396;-59
2024/02/28 15:26:14;;;;;;;22.80;8.35;;;;;;;17.08;55.84;101794.09;10452201;28;20290;-58
2024/02/28 15:31:14;;;;;;;24.30;9.77;;;;;;;17.03;54.10;101800.22;10452282;28;20033;-59
2024/02/28 15:36:14;;;;;;;18.50;8.45;;;;;;;17.08;53.98;101797.59;10452729;28;20039;-59
2024/02/28 15:41:15;;;;;;;18.87;8.13;;;;;;;17.10;54.47;101789.28;10451324;28;20107;-58
2024/02/28 15:46:15;;;;;;;32.28;9.48;;;;;;;17.09;53.57;101785.78;10437476;28;20302;-59
2024/02/28 15:51:16;;;;;;;18.63;8.60;;;;;;;17.04;54.21;101782.25;10452302;28;20021;-59
2024/02/28 15:56:16;;;;;;;19.88;8.88;;;;;;;17.08;54.15;101784.19;10451851;28;20025;-58
2024/02/28 16:01:17;;;;;;;14.77;7.95;;;;;;;17.05;53.27;101778.50;10450970;28;20039;-59
2024/02/28 16:06:17;;;;;;;22.38;6.30;;;;;;;17.06;54.51;101782.84;10450523;28;20079;-59
2024/02/28 16:11:17;;;;;;;12.87;6.03;;;;;;;17.00;52.98;101771.25;10451015;28;20079;-59
2024/02/28 16:16:18;;;;;;;14.33;6.60;;;;;;;17.00;54.06;101760.56;10451209;28;20278;-58
2024/02/28 16:21:18;;;;;;;24.67;7.50;;;;;;;17.02;54.26;101758.41;10448467;28;20291;-59
2024/02/28 16:26:18;;;;;;;17.33;8.35;;;;;;;17.20;53.96;101749.13;10448180;28;20287;-59
2024/02/28 16:31:19;;;;;;;23.17;8.73;;;;;;;17.30;52.55;101741.16;10443380;28;20025;-61
2024/02/28 16:36:19;;;;;;;17.45;7.75;;;;;;;17.44;53.97;101728.88;10415848;28;20276;-61
2024/02/28 16:41:21;;;;;;;11.35;7.80;;;;;;;17.58;53.10;101729.19;10438306;28;20116;-63
2024/02/28 16:46:21;;;;;;;15.80;7.78;;;;;;;17.70;55.26;101727.09;10444752;28;20147;-61
2024/02/28 16:51:21;;;;;;;14.57;8.00;;;;;;;17.92;56.30;101724.19;10440569;28;20151;-60
2024/02/28 16:56:22;;;;;;;11.27;8.18;;;;;;;18.04;56.63;101730.09;10442300;28;20064;-61
2024/02/28 17:01:23;;;;;;;15.47;8.30;;;;;;;18.05;56.12;101737.09;10442910;28;20033;-61
2024/02/28 17:06:24;;;;;;;14.25;6.75;;;;;;;18.30;56.82;101730.91;10447459;28;20283;-62
2024/02/28 17:11:24;;;;;;;11.30;6.50;;;;;;;18.07;57.66;101724.19;10448204;28;20041;-62
2024/02/28 17:16:24;;;;;;;11.93;6.80;;;;;;;17.98;57.44;101708.88;10448267;28;20389;-63
2024/02/28 17:21:25;;;;;;;12.10;6.00;;;;;;;17.94;57.72;101710.50;10448397;28;20025;-61
2024/02/28 17:26:25;;;;;;;15.23;6.55;;;;;;;17.86;57.03;101719.88;10450124;28;20267;-63
2024/02/28 17:31:25;;;;;;;8.40;5.93;;;;;;;17.78;57.92;101723.09;10449135;28;20028;-63
2024/02/28 17:36:26;;;;;;;10.87;5.80;;;;;;;17.76;58.00;101733.28;10449505;28;20805;-65
2024/02/28 17:41:26;;;;;;;14.18;5.88;;;;;;;17.79;58.66;101713.97;10449917;28;20288;-60
2024/02/28 17:46:26;;;;;;;24.23;5.80;;;;;;;17.49;57.75;101711.97;10449290;28;20024;-62
2024/02/28 17:51:27;;;;;;;14.07;5.83;;;;;;;17.39;58.41;101723.47;10447990;28;20407;-62
2024/02/28 17:56:27;;;;;;;10.70;4.97;;;;;;;17.30;56.77;101719.72;10444534;28;21547;-62
2024/02/28 18:01:28;;;;;;;9.43;5.20;;;;;;;17.23;57.37;101722.63;10455565;28;20366;-62
2024/02/28 18:06:28;;;;;;;9.18;4.72;;;;;;;17.17;57.85;101709.47;10454535;28;20659;-62
2024/02/28 18:11:30;;;;;;;11.13;4.97;;;;;;;17.12;58.26;101707.56;10453455;28;20044;-62
2024/02/28 18:16:30;;;;;;;5.72;4.43;;;;;;;17.04;58.13;101704.56;10455508;28;20256;-62
2024/02/28 18:21:34;;;;;;;8.03;5.00;;;;;;;17.01;57.08;101700.53;10454705;28;20372;-62
2024/02/28 18:26:34;;;;;;;8.45;5.05;;;;;;;17.02;57.09;101694.09;10455340;28;20294;-62
2024/02/28 18:31:34;;;;;;;10.73;4.87;;;;;;;17.00;57.27;101701.59;10454613;28;20038;-61
2024/02/28 18:36:35;;;;;;;7.50;4.47;;;;;;;17.05;55.95;101696.28;10454095;28;20271;-61
2024/02/28 18:41:35;;;;;;;7.03;4.15;;;;;;;17.08;57.33;101681.56;10452875;28;20290;-62
2024/02/28 18:46:35;;;;;;;7.17;4.37;;;;;;;17.10;56.00;101679.41;10454124;28;20025;-62
2024/02/28 18:51:36;;;;;;;17.77;4.90;;;;;;;17.14;56.06;101670.56;10453653;28;20264;-62
2024/02/28 18:56:36;;;;;;;8.50;4.20;;;;;;;17.17;56.18;101669.28;10452912;28;20267;-61
2024/02/28 19:01:38;;;;;;;5.72;4.07;;;;;;;17.19;55.48;101659.91;10443478;28;20033;-60
2024/02/28 19:06:39;;;;;;;7.53;3.80;;;;;;;17.23;56.11;101666.34;10454171;28;20384;-61
2024/02/28 19:11:39;;;;;;;6.88;3.72;;;;;;;17.37;56.43;101674.69;10453201;28;20048;-60
2024/02/28 19:16:40;;;;;;;9.43;4.03;;;;;;;17.44;55.77;101659.16;10453925;28;20045;-62
2024/02/28 19:21:40;;;;;;;4.57;3.17;;;;;;;17.42;56.48;101647.09;10452906;28;20441;-61
2024/02/28 19:26:42;;;;;;;5.50;3.77;;;;;;;17.32;55.86;101657.78;10452352;28;20037;-62
2024/02/28 19:31:42;;;;;;;4.35;3.80;;;;;;;17.31;55.84;101656.19;10443540;28;20310;-62
2024/02/28 19:36:43;;;;;;;5.55;3.17;;;;;;;17.30;55.31;101649.22;10449441;28;20579;-61
2024/02/28 19:41:43;;;;;;;4.23;3.20;;;;;;;17.24;55.57;101641.13;10450241;28;20017;-61
2024/02/28 19:46:47;;;;;;;4.78;2.95;;;;;;;17.23;56.41;101636.84;10449154;28;20283;-61
2024/02/28 19:51:47;;;;;;;6.68;3.53;;;;;;;17.21;56.17;101628.28;10446116;28;20017;-61
2024/02/28 19:56:48;;;;;;;6.03;3.23;;;;;;;17.17;56.09;101621.84;10450802;28;20021;-61
2024/02/28 20:01:48;;;;;;;5.93;3.27;;;;;;;17.15;56.58;101623.94;10450138;28;20292;-61
2024/02/28 20:06:48;;;;;;;7.43;4.07;;;;;;;17.19;56.03;101618.88;10445197;28;20739;-61
2024/02/28 20:11:49;;;;;;;4.57;2.63;;;;;;;17.18;56.04;101615.41;10449391;28;20291;-61
2024/02/28 20:16:49;;;;;;;4.45;2.88;;;;;;;17.19;54.71;101611.66;10450732;28;20021;-61
2024/02/28 20:21:49;;;;;;;4.75;2.97;;;;;;;17.22;55.83;101604.94;10448157;28;20158;-61
2024/02/28 20:26:50;;;;;;;3.83;2.83;;;;;;;17.19;56.29;101602.81;10428722;28;20059;-61
2024/02/28 20:31:50;;;;;;;3.53;2.80;;;;;;;17.16;55.01;101590.72;10450590;28;20622;-62
2024/02/28 20:36:50;;;;;;;4.33;2.83;;;;;;;17.12;55.15;101591.53;10450679;28;20268;-62
2024/02/28 20:41:51;;;;;;;3.80;2.63;;;;;;;17.13;56.03;101583.22;10449490;28;20287;-62
2024/02/28 20:46:51;;;;;;;4.20;2.70;;;;;;;17.17;55.89;101570.13;10449723;28;20318;-61
2024/02/28 20:51:52;;;;;;;4.78;2.55;;;;;;;17.14;55.24;101566.06;10449706;28;20797;-60
2024/02/28 20:56:52;;;;;;;5.78;2.60;;;;;;;17.21;55.10;101561.28;10450234;28;20033;-61
2024/02/28 21:01:53;;;;;;;4.07;2.57;;;;;;;17.31;56.00;101559.69;10449829;28;20033;-60
2024/02/28 21:06:53;;;;;;;3.88;2.08;;;;;;;17.31;55.29;101563.16;10449955;28;20334;-60
2024/02/28 21:12:03;;;;;;;4.00;2.33;;;;;;;17.28;55.94;101547.59;10449305;28;20045;-61
2024/02/28 21:17:06;;;;;;;4.18;2.20;;;;;;;17.24;54.46;101551.88;10451780;28;20404;-60
2024/02/28 21:22:06;;;;;;;4.05;2.42;;;;;;;17.25;55.55;101551.63;10457484;28;20032;-60
2024/02/28 21:27:09;;;;;;;3.78;2.15;;;;;;;17.26;55.51;101544.38;10458182;28;20372;-60
2024/02/28 21:32:09;;;;;;;4.50;2.20;;;;;;;17.22;54.70;101544.13;10457203;28;20028;-61
2024/02/28 21:37:10;;;;;;;3.35;2.63;;;;;;;17.26;54.88;101533.66;10457626;28;20479;-60
2024/02/28 21:42:10;;;;;;;4.00;2.57;;;;;;;17.29;54.98;101535.84;10457064;28;20040;-60
2024/02/28 21:47:12;;;;;;;3.90;2.10;;;;;;;17.25;55.63;101529.38;10455816;28;20777;-60
2024/02/28 21:52:13;;;;;;;3.83;2.17;;;;;;;17.28;54.61;101522.66;10456864;28;20354;-60
2024/02/28 21:57:13;;;;;;;3.03;2.25;;;;;;;17.27;54.74;101523.75;10457013;28;20519;-60
2024/02/28 22:02:13;;;;;;;3.27;2.27;;;;;;;17.28;54.42;101506.59;10456248;28;20029;-60
2024/02/28 22:07:14;;;;;;;3.15;2.30;;;;;;;17.28;55.53;101510.06;10456589;28;20311;-61
2024/02/28 22:12:14;;;;;;;4.68;1.73;;;;;;;17.27;54.88;101508.47;10454737;28;20072;-60
2024/02/28 22:17:15;;;;;;;3.72;2.22;;;;;;;17.27;54.67;101499.63;10452343;28;20048;-60
2024/02/28 22:22:15;;;;;;;3.03;2.00;;;;;;;17.28;55.14;101501.22;10452961;28;20024;-60
2024/02/28 22:27:16;;;;;;;3.08;2.05;;;;;;;17.27;53.93;101483.53;10452973;28;20029;-60
2024/02/28 22:32:16;;;;;;;3.80;1.93;;;;;;;17.29;54.64;101490.25;10452673;28;20036;-60
2024/02/28 22:37:16;;;;;;;4.43;2.10;;;;;;;17.31;54.45;101479.28;10452992;28;20279;-60
2024/02/28 22:42:17;;;;;;;3.40;2.07;;;;;;;17.24;54.74;101472.28;10452387;28;20310;-60
2024/02/28 22:47:17;;;;;;;2.83;1.67;;;;;;;17.29;54.10;101474.19;10451394;28;20300;-60
2024/02/28 22:52:17;;;;;;;3.08;1.63;;;;;;;17.27;55.61;101467.47;10452139;28;20469;-60
2024/02/28 22:57:18;;;;;;;2.20;1.63;;;;;;;17.29;54.85;101458.09;10451527;28;20032;-60